createdAt,value
2023-03-12T00:06:11.897Z,97.46
2023-03-12T00:16:12.248Z,97.50
2023-03-12T00:26:12.143Z,97.81
2023-03-12T00:36:12.518Z,97.81
2023-03-12T00:46:12.657Z,98.18
2023-03-12T00:56:12.784Z,98.38
2023-03-12T01:06:12.841Z,98.74
2023-03-12T01:16:13.191Z,99.16
2023-03-12T01:26:13.244Z,99.22
2023-03-12T01:36:13.663Z,99.11
2023-03-12T01:46:13.755Z,99.01
2023-03-12T01:56:13.998Z,99.16
2023-03-12T02:06:14.054Z,99.26
2023-03-12T02:16:14.341Z,99.73
2023-03-12T02:26:14.575Z,99.83
2023-03-12T02:36:14.626Z,99.99
2023-03-12T02:46:15.086Z,99.99
2023-03-12T02:56:14.935Z,99.99
2023-03-12T03:06:15.300Z,99.99
2023-03-12T03:16:15.388Z,99.99
2023-03-12T03:26:15.581Z,99.99
2023-03-12T03:36:15.603Z,99.99
2023-03-12T03:46:16.186Z,99.99
2023-03-12T03:56:16.094Z,99.95
2023-03-12T04:06:16.531Z,99.80
2023-03-12T04:16:16.599Z,99.95
2023-03-12T04:26:16.777Z,99.99
2023-03-12T04:36:16.820Z,99.33
2023-03-12T04:46:17.174Z,99.44
2023-03-12T04:56:17.251Z,99.23
2023-03-12T05:06:17.671Z,99.13
2023-03-12T05:16:17.830Z,99.33
2023-03-12T05:26:18.016Z,98.77
2023-03-12T05:36:18.073Z,97.94
2023-03-12T05:46:19.278Z,98.56
2023-03-12T05:56:18.550Z,98.46
2023-03-12T06:06:20.240Z,98.35
2023-03-12T06:16:18.776Z,97.47
2023-03-12T06:26:18.840Z,97.53
2023-03-12T06:36:19.084Z,96.55
2023-03-12T06:46:19.483Z,95.57
2023-03-12T06:56:19.569Z,95.26
2023-03-12T07:06:19.964Z,95.26
2023-03-12T07:16:20.066Z,96.09
2023-03-12T07:26:30.243Z,96.78
2023-03-12T07:36:20.360Z,94.92
2023-03-12T07:46:20.592Z,93.12
2023-03-12T07:56:24.073Z,93.28
2023-03-12T08:06:20.902Z,92.38
2023-03-12T08:16:21.084Z,94.15
2023-03-12T08:26:21.110Z,94.89
2023-03-12T08:36:22.568Z,93.23
2023-03-12T08:46:21.744Z,91.95
2023-03-12T08:56:21.639Z,91.08
2023-03-12T09:06:21.958Z,91.49
2023-03-12T09:16:22.070Z,93.10
2023-03-12T09:26:22.123Z,94.24
2023-03-12T09:36:22.354Z,91.99
2023-03-12T09:46:22.747Z,93.02
2023-03-12T09:56:22.814Z,93.89
2023-03-12T10:06:23.117Z,94.73
2023-03-12T10:16:23.305Z,94.07
2023-03-12T10:26:23.555Z,94.90
2023-03-12T10:36:23.806Z,95.10
2023-03-12T10:46:24.143Z,95.52
2023-03-12T10:56:24.182Z,95.57
2023-03-12T11:06:24.487Z,94.71
2023-03-12T11:16:24.566Z,95.64
2023-03-12T11:26:26.717Z,95.06
2023-03-12T11:36:24.761Z,94.13
2023-03-12T11:46:25.201Z,95.02
2023-03-12T11:56:25.239Z,95.32
2023-03-12T12:06:25.608Z,95.59
2023-03-12T12:16:25.684Z,95.49
2023-03-12T12:26:25.773Z,96.11
2023-03-12T12:36:25.824Z,95.59
2023-03-12T12:46:26.173Z,95.86
2023-03-12T12:56:26.217Z,95.71
2023-03-12T13:06:26.510Z,94.64
2023-03-12T13:16:26.699Z,94.70
2023-03-12T13:26:26.777Z,95.62
2023-03-12T13:36:26.855Z,96.41
2023-03-12T13:46:28.312Z,95.62
2023-03-12T13:56:27.241Z,95.99
2023-03-12T14:06:27.701Z,95.53
2023-03-12T14:16:27.702Z,94.73
2023-03-12T14:26:27.796Z,94.78
2023-03-12T14:36:27.880Z,94.89
2023-03-12T14:46:28.207Z,94.17
2023-03-12T14:56:28.290Z,93.76
2023-03-12T15:06:29.499Z,93.61
2023-03-12T15:16:28.870Z,93.46
2023-03-12T15:26:28.909Z,93.21
2023-03-12T15:36:28.972Z,88.66
2023-03-12T15:46:29.155Z,86.83
2023-03-12T15:56:29.500Z,83.88
2023-03-12T16:06:29.603Z,83.68
2023-03-12T16:16:29.687Z,85.95
2023-03-12T16:26:29.950Z,85.06
2023-03-12T16:36:29.855Z,84.69
2023-03-12T16:46:30.067Z,86.48
2023-03-12T16:56:30.113Z,86.48
2023-03-12T17:06:30.358Z,87.75
2023-03-12T17:16:30.795Z,89.44
2023-03-12T17:26:30.831Z,88.72
2023-03-12T17:36:31.058Z,89.75
2023-03-12T17:46:31.144Z,90.09
2023-03-12T17:56:31.540Z,87.04
2023-03-12T18:06:31.511Z,87.13
2023-03-12T18:16:31.839Z,86.62
2023-03-12T18:26:31.589Z,85.90
2023-03-12T18:36:32.176Z,85.80
2023-03-12T18:46:32.451Z,86.87
2023-03-12T18:56:32.588Z,87.81
2023-03-12T19:06:47.740Z,87.92
2023-03-12T19:16:33.943Z,90.12
2023-03-12T19:26:33.723Z,90.47
2023-03-12T19:36:33.141Z,92.16
2023-03-12T19:46:33.211Z,92.61
2023-03-12T19:56:33.545Z,92.41
2023-03-12T20:06:33.870Z,92.10
2023-03-12T20:16:34.923Z,90.31
2023-03-12T20:26:33.980Z,89.58
2023-03-12T20:36:34.994Z,90.39
2023-03-12T20:46:34.367Z,90.19
2023-03-12T20:56:34.517Z,90.80
2023-03-12T21:06:34.623Z,91.16
2023-03-12T21:16:34.998Z,90.95
2023-03-12T21:26:35.062Z,90.53
2023-03-12T21:36:35.360Z,90.26
2023-03-12T21:46:35.472Z,90.47
2023-03-12T21:56:35.381Z,90.37
2023-03-12T22:06:35.806Z,90.47
2023-03-12T22:16:35.996Z,89.95
2023-03-12T22:26:36.084Z,90.06
2023-03-12T22:36:36.358Z,91.38
2023-03-12T22:46:36.488Z,92.46
2023-03-12T22:56:36.607Z,90.35
2023-03-12T23:06:36.652Z,89.89
2023-03-12T23:16:37.005Z,88.65
2023-03-12T23:26:36.851Z,87.68
2023-03-12T23:36:37.262Z,89.22
2023-03-12T23:46:37.316Z,88.24
2023-03-12T23:56:37.645Z,86.44
